sensor_id;sensor_type;location;lat;lon;timestamp;temperature;humidity
52103;DHT22;38101;53.126;6.878;2022-11-15T00:01:53;8.50;99.90
52103;DHT22;38101;53.126;6.878;2022-11-15T00:04:18;8.50;99.90
52103;DHT22;38101;53.126;6.878;2022-11-15T00:06:44;8.60;99.90
52103;DHT22;38101;53.126;6.878;2022-11-15T00:09:10;8.50;99.90
52103;DHT22;38101;53.126;6.878;2022-11-15T00:11:35;8.50;99.90
52103;DHT22;38101;53.126;6.878;2022-11-15T00:14:01;8.60;99.90
52103;DHT22;38101;53.126;6.878;2022-11-15T00:16:29;8.50;99.90
52103;DHT22;38101;53.126;6.878;2022-11-15T00:18:55;8.50;99.90
52103;DHT22;38101;53.126;6.878;2022-11-15T00:21:22;8.40;99.90
52103;DHT22;38101;53.126;6.878;2022-11-15T00:23:48;8.40;99.90
52103;DHT22;38101;53.126;6.878;2022-11-15T00:26:15;8.40;99.90
52103;DHT22;38101;53.126;6.878;2022-11-15T00:28:41;8.40;99.90
52103;DHT22;38101;53.126;6.878;2022-11-15T00:31:10;8.30;99.90
52103;DHT22;38101;53.126;6.878;2022-11-15T00:33:37;8.30;99.90
52103;DHT22;38101;53.126;6.878;2022-11-15T00:36:04;8.30;99.90
52103;DHT22;38101;53.126;6.878;2022-11-15T00:38:35;8.30;99.90
52103;DHT22;38101;53.126;6.878;2022-11-15T00:41:02;8.30;99.90
52103;DHT22;38101;53.126;6.878;2022-11-15T00:43:28;8.30;99.90
52103;DHT22;38101;53.126;6.878;2022-11-15T00:45:54;8.30;99.90
52103;DHT22;38101;53.126;6.878;2022-11-15T00:48:20;8.20;99.90
52103;DHT22;38101;53.126;6.878;2022-11-15T00:50:45;8.30;99.90
52103;DHT22;38101;53.126;6.878;2022-11-15T00:53:11;8.30;99.90
52103;DHT22;38101;53.126;6.878;2022-11-15T00:55:37;8.30;99.90
52103;DHT22;38101;53.126;6.878;2022-11-15T00:58:03;8.30;99.90
52103;DHT22;38101;53.126;6.878;2022-11-15T01:00:28;8.20;99.90
52103;DHT22;38101;53.126;6.878;2022-11-15T01:02:54;8.30;99.90
52103;DHT22;38101;53.126;6.878;2022-11-15T01:05:20;8.30;99.90
52103;DHT22;38101;53.126;6.878;2022-11-15T01:07:46;8.20;99.90
52103;DHT22;38101;53.126;6.878;2022-11-15T01:10:12;8.30;99.90
52103;DHT22;38101;53.126;6.878;2022-11-15T01:12:38;8.20;99.90
52103;DHT22;38101;53.126;6.878;2022-11-15T01:15:04;8.20;99.90
52103;DHT22;38101;53.126;6.878;2022-11-15T01:17:30;8.20;99.90
52103;DHT22;38101;53.126;6.878;2022-11-15T01:19:56;8.20;99.90
52103;DHT22;38101;53.126;6.878;2022-11-15T01:22:22;8.00;99.90
52103;DHT22;38101;53.126;6.878;2022-11-15T01:24:50;8.10;99.90
52103;DHT22;38101;53.126;6.878;2022-11-15T01:27:15;8.10;99.90
52103;DHT22;38101;53.126;6.878;2022-11-15T01:29:41;8.20;99.90
52103;DHT22;38101;53.126;6.878;2022-11-15T01:32:07;8.10;99.90
52103;DHT22;38101;53.126;6.878;2022-11-15T01:34:33;8.20;99.90
52103;DHT22;38101;53.126;6.878;2022-11-15T01:36:58;8.20;99.90
52103;DHT22;38101;53.126;6.878;2022-11-15T01:39:24;8.20;99.90
52103;DHT22;38101;53.126;6.878;2022-11-15T01:41:50;8.20;99.90
52103;DHT22;38101;53.126;6.878;2022-11-15T01:44:47;8.30;99.90
52103;DHT22;38101;53.126;6.878;2022-11-15T01:50:19;8.30;99.90
52103;DHT22;38101;53.126;6.878;2022-11-15T01:52:46;8.30;99.90
52103;DHT22;38101;53.126;6.878;2022-11-15T01:55:20;8.30;99.90
52103;DHT22;38101;53.126;6.878;2022-11-15T01:57:50;8.30;99.90
52103;DHT22;38101;53.126;6.878;2022-11-15T02:00:16;8.30;99.90
52103;DHT22;38101;53.126;6.878;2022-11-15T02:02:42;8.30;99.90
52103;DHT22;38101;53.126;6.878;2022-11-15T02:05:09;8.30;99.90
52103;DHT22;38101;53.126;6.878;2022-11-15T02:07:35;8.30;99.90
52103;DHT22;38101;53.126;6.878;2022-11-15T02:10:18;8.30;99.90
52103;DHT22;38101;53.126;6.878;2022-11-15T02:12:45;8.30;99.90
52103;DHT22;38101;53.126;6.878;2022-11-15T02:15:12;8.30;99.90
52103;DHT22;38101;53.126;6.878;2022-11-15T02:31:41;8.40;99.90
52103;DHT22;38101;53.126;6.878;2022-11-15T02:34:46;8.40;99.90
52103;DHT22;38101;53.126;6.878;2022-11-15T02:37:43;8.40;99.90
52103;DHT22;38101;53.126;6.878;2022-11-15T02:42:56;8.40;99.90
52103;DHT22;38101;53.126;6.878;2022-11-15T02:45:47;8.40;99.90
52103;DHT22;38101;53.126;6.878;2022-11-15T02:48:15;8.40;99.90
52103;DHT22;38101;53.126;6.878;2022-11-15T02:50:42;8.50;99.90
52103;DHT22;38101;53.126;6.878;2022-11-15T02:53:09;8.50;99.90
52103;DHT22;38101;53.126;6.878;2022-11-15T02:55:43;8.50;99.90
52103;DHT22;38101;53.126;6.878;2022-11-15T02:58:44;8.50;99.90
52103;DHT22;38101;53.126;6.878;2022-11-15T03:01:14;8.50;99.90
52103;DHT22;38101;53.126;6.878;2022-11-15T03:06:50;8.50;99.90
52103;DHT22;38101;53.126;6.878;2022-11-15T03:09:28;8.50;99.90
52103;DHT22;38101;53.126;6.878;2022-11-15T03:12:21;8.50;99.90
52103;DHT22;38101;53.126;6.878;2022-11-15T03:15:22;8.60;99.90
52103;DHT22;38101;53.126;6.878;2022-11-15T03:20:19;8.60;99.90
52103;DHT22;38101;53.126;6.878;2022-11-15T03:22:47;8.60;99.90
52103;DHT22;38101;53.126;6.878;2022-11-15T03:25:17;8.60;99.90
52103;DHT22;38101;53.126;6.878;2022-11-15T03:27:48;8.60;99.90
52103;DHT22;38101;53.126;6.878;2022-11-15T03:30:16;8.60;99.90
52103;DHT22;38101;53.126;6.878;2022-11-15T03:32:50;8.60;99.90
52103;DHT22;38101;53.126;6.878;2022-11-15T03:35:25;8.60;99.90
52103;DHT22;38101;53.126;6.878;2022-11-15T03:37:55;8.60;99.90
52103;DHT22;38101;53.126;6.878;2022-11-15T03:40:48;8.60;99.90
52103;DHT22;38101;53.126;6.878;2022-11-15T03:43:36;8.60;99.90
52103;DHT22;38101;53.126;6.878;2022-11-15T03:46:11;8.60;99.90
52103;DHT22;38101;53.126;6.878;2022-11-15T03:48:43;8.60;99.90
52103;DHT22;38101;53.126;6.878;2022-11-15T03:51:10;8.60;99.90
52103;DHT22;38101;53.126;6.878;2022-11-15T03:53:36;8.70;99.90
52103;DHT22;38101;53.126;6.878;2022-11-15T03:56:02;8.70;99.90
52103;DHT22;38101;53.126;6.878;2022-11-15T03:58:28;8.70;99.90
52103;DHT22;38101;53.126;6.878;2022-11-15T04:00:53;8.60;99.90
52103;DHT22;38101;53.126;6.878;2022-11-15T04:03:19;8.70;99.90
52103;DHT22;38101;53.126;6.878;2022-11-15T04:05:45;8.70;99.90
52103;DHT22;38101;53.126;6.878;2022-11-15T04:08:10;8.70;99.90
52103;DHT22;38101;53.126;6.878;2022-11-15T04:10:36;8.70;99.90
52103;DHT22;38101;53.126;6.878;2022-11-15T04:13:02;8.70;99.90
52103;DHT22;38101;53.126;6.878;2022-11-15T04:15:28;8.70;99.90
52103;DHT22;38101;53.126;6.878;2022-11-15T04:17:56;8.70;99.90
52103;DHT22;38101;53.126;6.878;2022-11-15T04:20:27;8.70;99.90
52103;DHT22;38101;53.126;6.878;2022-11-15T04:23:18;8.70;99.90
52103;DHT22;38101;53.126;6.878;2022-11-15T04:26:14;8.70;99.90
52103;DHT22;38101;53.126;6.878;2022-11-15T04:28:41;8.70;99.90
52103;DHT22;38101;53.126;6.878;2022-11-15T04:31:25;8.70;99.90
52103;DHT22;38101;53.126;6.878;2022-11-15T04:33:52;8.70;99.90
52103;DHT22;38101;53.126;6.878;2022-11-15T04:36:18;8.80;99.90
52103;DHT22;38101;53.126;6.878;2022-11-15T04:39:02;8.70;99.90
52103;DHT22;38101;53.126;6.878;2022-11-15T04:41:28;8.80;99.90
52103;DHT22;38101;53.126;6.878;2022-11-15T04:43:54;8.80;99.90
52103;DHT22;38101;53.126;6.878;2022-11-15T04:46:21;8.80;99.90
52103;DHT22;38101;53.126;6.878;2022-11-15T04:48:47;8.80;99.90
52103;DHT22;38101;53.126;6.878;2022-11-15T04:51:12;8.80;99.90
52103;DHT22;38101;53.126;6.878;2022-11-15T04:53:38;8.80;99.90
52103;DHT22;38101;53.126;6.878;2022-11-15T04:56:04;8.80;99.90
52103;DHT22;38101;53.126;6.878;2022-11-15T04:58:30;8.80;99.90
52103;DHT22;38101;53.126;6.878;2022-11-15T05:00:55;8.80;99.90
52103;DHT22;38101;53.126;6.878;2022-11-15T05:03:21;8.80;99.90
52103;DHT22;38101;53.126;6.878;2022-11-15T05:06:06;8.80;99.90
52103;DHT22;38101;53.126;6.878;2022-11-15T05:08:32;8.80;99.90
52103;DHT22;38101;53.126;6.878;2022-11-15T05:10:58;8.80;99.90
52103;DHT22;38101;53.126;6.878;2022-11-15T05:13:23;8.80;99.90
52103;DHT22;38101;53.126;6.878;2022-11-15T05:15:49;8.80;99.90
52103;DHT22;38101;53.126;6.878;2022-11-15T05:18:15;8.90;99.90
52103;DHT22;38101;53.126;6.878;2022-11-15T05:20:40;8.80;99.90
52103;DHT22;38101;53.126;6.878;2022-11-15T05:23:06;8.90;99.90
52103;DHT22;38101;53.126;6.878;2022-11-15T05:25:32;8.90;99.90
52103;DHT22;38101;53.126;6.878;2022-11-15T05:27:58;8.90;99.90
52103;DHT22;38101;53.126;6.878;2022-11-15T05:30:24;8.90;99.90
52103;DHT22;38101;53.126;6.878;2022-11-15T05:32:50;8.90;99.90
52103;DHT22;38101;53.126;6.878;2022-11-15T05:35:21;8.80;99.90
52103;DHT22;38101;53.126;6.878;2022-11-15T05:37:50;8.90;99.90
52103;DHT22;38101;53.126;6.878;2022-11-15T05:40:16;8.90;99.90
52103;DHT22;38101;53.126;6.878;2022-11-15T05:42:42;8.90;99.90
52103;DHT22;38101;53.126;6.878;2022-11-15T05:45:08;8.90;99.90
52103;DHT22;38101;53.126;6.878;2022-11-15T05:47:35;9.00;99.90
52103;DHT22;38101;53.126;6.878;2022-11-15T05:50:03;8.90;99.90
52103;DHT22;38101;53.126;6.878;2022-11-15T05:52:31;9.00;99.90
52103;DHT22;38101;53.126;6.878;2022-11-15T05:55:00;9.00;99.90
52103;DHT22;38101;53.126;6.878;2022-11-15T05:57:26;9.10;99.90
52103;DHT22;38101;53.126;6.878;2022-11-15T05:59:53;9.10;99.90
52103;DHT22;38101;53.126;6.878;2022-11-15T06:02:19;9.10;99.90
52103;DHT22;38101;53.126;6.878;2022-11-15T06:04:45;9.10;99.90
52103;DHT22;38101;53.126;6.878;2022-11-15T06:07:11;9.20;99.90
52103;DHT22;38101;53.126;6.878;2022-11-15T06:09:36;9.20;99.90
52103;DHT22;38101;53.126;6.878;2022-11-15T06:12:02;9.20;99.90
52103;DHT22;38101;53.126;6.878;2022-11-15T06:14:28;9.20;99.90
52103;DHT22;38101;53.126;6.878;2022-11-15T06:16:53;9.20;99.90
52103;DHT22;38101;53.126;6.878;2022-11-15T06:19:19;9.30;99.90
52103;DHT22;38101;53.126;6.878;2022-11-15T06:21:44;9.30;99.90
52103;DHT22;38101;53.126;6.878;2022-11-15T06:24:10;9.40;99.90
52103;DHT22;38101;53.126;6.878;2022-11-15T06:26:36;9.40;99.90
52103;DHT22;38101;53.126;6.878;2022-11-15T06:29:03;9.40;99.90
52103;DHT22;38101;53.126;6.878;2022-11-15T06:31:30;9.40;99.90
52103;DHT22;38101;53.126;6.878;2022-11-15T06:33:55;9.50;99.90
52103;DHT22;38101;53.126;6.878;2022-11-15T06:36:21;9.50;99.90
52103;DHT22;38101;53.126;6.878;2022-11-15T06:38:47;9.50;99.90
52103;DHT22;38101;53.126;6.878;2022-11-15T06:41:13;9.50;99.90
52103;DHT22;38101;53.126;6.878;2022-11-15T06:43:40;9.60;99.90
52103;DHT22;38101;53.126;6.878;2022-11-15T06:46:06;9.70;99.90
52103;DHT22;38101;53.126;6.878;2022-11-15T06:48:33;9.60;99.90
52103;DHT22;38101;53.126;6.878;2022-11-15T06:51:01;9.60;99.90
52103;DHT22;38101;53.126;6.878;2022-11-15T06:53:28;9.70;99.90
52103;DHT22;38101;53.126;6.878;2022-11-15T06:55:59;9.70;99.90
52103;DHT22;38101;53.126;6.878;2022-11-15T06:58:24;9.80;99.90
52103;DHT22;38101;53.126;6.878;2022-11-15T07:00:50;9.80;99.90
52103;DHT22;38101;53.126;6.878;2022-11-15T07:03:16;9.80;99.90
52103;DHT22;38101;53.126;6.878;2022-11-15T07:05:41;9.80;99.90
52103;DHT22;38101;53.126;6.878;2022-11-15T07:08:07;9.90;99.90
52103;DHT22;38101;53.126;6.878;2022-11-15T07:10:33;9.90;99.90
52103;DHT22;38101;53.126;6.878;2022-11-15T07:12:58;9.90;99.90
52103;DHT22;38101;53.126;6.878;2022-11-15T07:15:25;9.90;99.90
52103;DHT22;38101;53.126;6.878;2022-11-15T07:17:51;9.90;99.90
52103;DHT22;38101;53.126;6.878;2022-11-15T07:20:17;10.00;99.90
52103;DHT22;38101;53.126;6.878;2022-11-15T07:22:43;10.00;99.90
52103;DHT22;38101;53.126;6.878;2022-11-15T07:25:11;10.00;99.90
52103;DHT22;38101;53.126;6.878;2022-11-15T07:27:37;10.10;99.90
52103;DHT22;38101;53.126;6.878;2022-11-15T07:30:03;10.10;99.90
52103;DHT22;38101;53.126;6.878;2022-11-15T07:32:29;10.10;99.90
52103;DHT22;38101;53.126;6.878;2022-11-15T07:34:55;10.10;99.90
52103;DHT22;38101;53.126;6.878;2022-11-15T07:37:20;10.00;99.90
52103;DHT22;38101;53.126;6.878;2022-11-15T07:39:46;10.10;99.90
52103;DHT22;38101;53.126;6.878;2022-11-15T07:42:12;10.10;99.90
52103;DHT22;38101;53.126;6.878;2022-11-15T07:45:16;10.20;99.90
52103;DHT22;38101;53.126;6.878;2022-11-15T07:47:45;10.20;99.90
52103;DHT22;38101;53.126;6.878;2022-11-15T07:50:11;10.20;99.90
52103;DHT22;38101;53.126;6.878;2022-11-15T07:52:37;10.20;99.90
52103;DHT22;38101;53.126;6.878;2022-11-15T07:55:03;10.20;99.90
52103;DHT22;38101;53.126;6.878;2022-11-15T07:57:29;10.20;99.90
52103;DHT22;38101;53.126;6.878;2022-11-15T07:59:55;10.30;99.90
52103;DHT22;38101;53.126;6.878;2022-11-15T08:02:21;10.30;99.90
52103;DHT22;38101;53.126;6.878;2022-11-15T08:04:46;10.20;99.90
52103;DHT22;38101;53.126;6.878;2022-11-15T08:07:12;10.30;99.90
52103;DHT22;38101;53.126;6.878;2022-11-15T08:09:38;10.30;99.90
52103;DHT22;38101;53.126;6.878;2022-11-15T08:12:04;10.30;99.90
52103;DHT22;38101;53.126;6.878;2022-11-15T08:14:29;10.30;99.90
52103;DHT22;38101;53.126;6.878;2022-11-15T08:16:55;10.40;99.90
52103;DHT22;38101;53.126;6.878;2022-11-15T08:19:21;10.40;99.90
52103;DHT22;38101;53.126;6.878;2022-11-15T08:21:46;10.50;99.90
52103;DHT22;38101;53.126;6.878;2022-11-15T08:24:12;10.40;99.90
52103;DHT22;38101;53.126;6.878;2022-11-15T08:26:38;10.40;99.90
52103;DHT22;38101;53.126;6.878;2022-11-15T08:29:05;10.50;99.90
52103;DHT22;38101;53.126;6.878;2022-11-15T08:31:30;10.50;99.90
52103;DHT22;38101;53.126;6.878;2022-11-15T08:33:56;10.50;99.90
52103;DHT22;38101;53.126;6.878;2022-11-15T08:36:22;10.50;99.90
52103;DHT22;38101;53.126;6.878;2022-11-15T08:38:47;10.60;99.90
52103;DHT22;38101;53.126;6.878;2022-11-15T08:41:33;10.60;99.90
52103;DHT22;38101;53.126;6.878;2022-11-15T08:44:01;10.60;99.90
52103;DHT22;38101;53.126;6.878;2022-11-15T08:46:26;10.60;99.90
52103;DHT22;38101;53.126;6.878;2022-11-15T08:48:52;10.80;99.90
52103;DHT22;38101;53.126;6.878;2022-11-15T08:51:18;10.70;99.90
52103;DHT22;38101;53.126;6.878;2022-11-15T08:53:44;10.70;99.90
52103;DHT22;38101;53.126;6.878;2022-11-15T08:56:11;10.80;99.90
52103;DHT22;38101;53.126;6.878;2022-11-15T08:58:37;10.80;99.90
52103;DHT22;38101;53.126;6.878;2022-11-15T09:01:03;10.80;99.90
52103;DHT22;38101;53.126;6.878;2022-11-15T09:03:30;10.90;99.90
52103;DHT22;38101;53.126;6.878;2022-11-15T09:05:59;10.90;99.90
52103;DHT22;38101;53.126;6.878;2022-11-15T09:08:29;10.90;99.90
52103;DHT22;38101;53.126;6.878;2022-11-15T09:10:55;11.00;99.90
52103;DHT22;38101;53.126;6.878;2022-11-15T09:13:21;11.00;99.90
52103;DHT22;38101;53.126;6.878;2022-11-15T09:15:47;11.10;99.90
52103;DHT22;38101;53.126;6.878;2022-11-15T09:18:13;11.00;99.90
52103;DHT22;38101;53.126;6.878;2022-11-15T09:20:39;11.10;99.90
52103;DHT22;38101;53.126;6.878;2022-11-15T09:23:05;11.10;99.90
52103;DHT22;38101;53.126;6.878;2022-11-15T09:25:31;11.10;99.90
52103;DHT22;38101;53.126;6.878;2022-11-15T09:27:58;11.10;99.90
52103;DHT22;38101;53.126;6.878;2022-11-15T09:30:24;11.20;99.90
52103;DHT22;38101;53.126;6.878;2022-11-15T09:32:50;11.20;99.90
52103;DHT22;38101;53.126;6.878;2022-11-15T09:35:17;11.20;99.90
52103;DHT22;38101;53.126;6.878;2022-11-15T09:37:42;11.20;99.90
52103;DHT22;38101;53.126;6.878;2022-11-15T09:40:11;11.20;99.90
52103;DHT22;38101;53.126;6.878;2022-11-15T09:45:42;11.30;99.90
52103;DHT22;38101;53.126;6.878;2022-11-15T09:48:29;11.30;99.90
52103;DHT22;38101;53.126;6.878;2022-11-15T09:50:59;11.30;99.90
52103;DHT22;38101;53.126;6.878;2022-11-15T09:53:36;11.30;99.90
52103;DHT22;38101;53.126;6.878;2022-11-15T09:58:45;11.30;99.90
52103;DHT22;38101;53.126;6.878;2022-11-15T10:01:35;11.40;99.90
52103;DHT22;38101;53.126;6.878;2022-11-15T10:04:01;11.40;99.90
52103;DHT22;38101;53.126;6.878;2022-11-15T10:06:27;11.40;99.90
52103;DHT22;38101;53.126;6.878;2022-11-15T10:09:05;11.50;99.90
52103;DHT22;38101;53.126;6.878;2022-11-15T10:11:35;11.40;99.90
52103;DHT22;38101;53.126;6.878;2022-11-15T10:14:13;11.50;99.90
52103;DHT22;38101;53.126;6.878;2022-11-15T10:17:15;11.50;99.90
52103;DHT22;38101;53.126;6.878;2022-11-15T10:20:00;11.50;99.90
52103;DHT22;38101;53.126;6.878;2022-11-15T10:22:34;11.50;99.90
52103;DHT22;38101;53.126;6.878;2022-11-15T10:25:21;11.50;99.90
52103;DHT22;38101;53.126;6.878;2022-11-15T10:27:55;11.50;99.90
52103;DHT22;38101;53.126;6.878;2022-11-15T10:30:31;11.50;99.90
52103;DHT22;38101;53.126;6.878;2022-11-15T10:32:57;11.50;99.90
52103;DHT22;38101;53.126;6.878;2022-11-15T10:35:29;11.40;99.90
52103;DHT22;38101;53.126;6.878;2022-11-15T10:38:06;11.60;99.90
52103;DHT22;38101;53.126;6.878;2022-11-15T10:40:32;11.60;99.90
52103;DHT22;38101;53.126;6.878;2022-11-15T10:43:24;11.50;99.90
52103;DHT22;38101;53.126;6.878;2022-11-15T10:45:51;11.50;99.90
52103;DHT22;38101;53.126;6.878;2022-11-15T10:50:45;11.50;99.90
52103;DHT22;38101;53.126;6.878;2022-11-15T10:53:22;11.50;99.90
52103;DHT22;38101;53.126;6.878;2022-11-15T10:55:50;11.50;99.90
52103;DHT22;38101;53.126;6.878;2022-11-15T11:00:48;11.60;99.90
52103;DHT22;38101;53.126;6.878;2022-11-15T11:03:40;11.60;99.90
52103;DHT22;38101;53.126;6.878;2022-11-15T11:06:16;11.60;99.90
52103;DHT22;38101;53.126;6.878;2022-11-15T11:08:57;11.60;99.90
52103;DHT22;38101;53.126;6.878;2022-11-15T11:11:24;11.60;99.90
52103;DHT22;38101;53.126;6.878;2022-11-15T11:13:50;11.60;99.90
52103;DHT22;38101;53.126;6.878;2022-11-15T11:16:47;11.60;99.90
52103;DHT22;38101;53.126;6.878;2022-11-15T11:19:39;11.60;99.90
52103;DHT22;38101;53.126;6.878;2022-11-15T11:33:24;11.70;99.90
52103;DHT22;38101;53.126;6.878;2022-11-15T11:36:29;11.70;99.90
52103;DHT22;38101;53.126;6.878;2022-11-15T11:39:25;11.80;99.90
52103;DHT22;38101;53.126;6.878;2022-11-15T11:47:41;11.90;99.90
52103;DHT22;38101;53.126;6.878;2022-11-15T11:50:15;11.90;99.90
52103;DHT22;38101;53.126;6.878;2022-11-15T11:52:49;12.00;99.90
52103;DHT22;38101;53.126;6.878;2022-11-15T11:55:26;12.00;99.90
52103;DHT22;38101;53.126;6.878;2022-11-15T12:00:54;12.10;99.90
52103;DHT22;38101;53.126;6.878;2022-11-15T12:03:28;12.20;99.90
52103;DHT22;38101;53.126;6.878;2022-11-15T12:06:02;12.20;99.90
52103;DHT22;38101;53.126;6.878;2022-11-15T12:14:49;12.30;99.90
52103;DHT22;38101;53.126;6.878;2022-11-15T12:17:19;12.40;99.90
52103;DHT22;38101;53.126;6.878;2022-11-15T12:19:46;12.50;99.90
52103;DHT22;38101;53.126;6.878;2022-11-15T12:22:33;12.50;99.90
52103;DHT22;38101;53.126;6.878;2022-11-15T12:27:40;12.70;99.90
52103;DHT22;38101;53.126;6.878;2022-11-15T12:30:12;12.60;99.90
52103;DHT22;38101;53.126;6.878;2022-11-15T12:32:49;12.70;99.90
52103;DHT22;38101;53.126;6.878;2022-11-15T12:35:36;12.70;99.90
52103;DHT22;38101;53.126;6.878;2022-11-15T12:38:03;12.70;99.90
52103;DHT22;38101;53.126;6.878;2022-11-15T12:40:37;12.70;99.90
52103;DHT22;38101;53.126;6.878;2022-11-15T12:45:37;12.70;99.90
52103;DHT22;38101;53.126;6.878;2022-11-15T12:58:56;12.70;99.90
52103;DHT22;38101;53.126;6.878;2022-11-15T13:06:50;12.70;99.90
52103;DHT22;38101;53.126;6.878;2022-11-15T13:11:59;12.70;99.90
52103;DHT22;38101;53.126;6.878;2022-11-15T13:22:47;12.70;99.90
52103;DHT22;38101;53.126;6.878;2022-11-15T13:28:02;13.00;99.90
52103;DHT22;38101;53.126;6.878;2022-11-15T13:30:33;13.10;99.90
52103;DHT22;38101;53.126;6.878;2022-11-15T13:33:06;13.20;99.90
52103;DHT22;38101;53.126;6.878;2022-11-15T13:35:33;13.20;99.90
52103;DHT22;38101;53.126;6.878;2022-11-15T13:38:03;13.20;99.90
52103;DHT22;38101;53.126;6.878;2022-11-15T13:40:35;13.30;99.90
52103;DHT22;38101;53.126;6.878;2022-11-15T13:43:34;13.20;99.90
52103;DHT22;38101;53.126;6.878;2022-11-15T13:48:30;13.20;99.90
52103;DHT22;38101;53.126;6.878;2022-11-15T13:50:57;13.20;99.90
52103;DHT22;38101;53.126;6.878;2022-11-15T13:53:23;13.10;99.90
52103;DHT22;38101;53.126;6.878;2022-11-15T13:55:50;13.20;99.90
52103;DHT22;38101;53.126;6.878;2022-11-15T13:58:16;13.20;99.90
52103;DHT22;38101;53.126;6.878;2022-11-15T14:00:45;13.20;99.90
52103;DHT22;38101;53.126;6.878;2022-11-15T14:03:19;13.20;99.90
52103;DHT22;38101;53.126;6.878;2022-11-15T14:06:08;13.20;99.90
52103;DHT22;38101;53.126;6.878;2022-11-15T14:08:38;13.20;99.90
52103;DHT22;38101;53.126;6.878;2022-11-15T14:11:19;13.10;99.90
52103;DHT22;38101;53.126;6.878;2022-11-15T14:14:12;13.10;99.90
52103;DHT22;38101;53.126;6.878;2022-11-15T14:16:41;13.00;99.90
52103;DHT22;38101;53.126;6.878;2022-11-15T14:19:11;13.00;99.90
52103;DHT22;38101;53.126;6.878;2022-11-15T14:21:37;13.00;99.90
52103;DHT22;38101;53.126;6.878;2022-11-15T14:24:30;13.00;99.90
52103;DHT22;38101;53.126;6.878;2022-11-15T14:26:57;13.00;99.90
52103;DHT22;38101;53.126;6.878;2022-11-15T14:31:48;12.80;99.90
52103;DHT22;38101;53.126;6.878;2022-11-15T14:34:13;12.80;99.90
52103;DHT22;38101;53.126;6.878;2022-11-15T14:36:39;12.70;99.90
52103;DHT22;38101;53.126;6.878;2022-11-15T14:39:05;12.70;99.90
52103;DHT22;38101;53.126;6.878;2022-11-15T14:41:34;12.70;99.90
52103;DHT22;38101;53.126;6.878;2022-11-15T14:44:04;12.60;99.90
52103;DHT22;38101;53.126;6.878;2022-11-15T14:46:30;12.60;99.90
52103;DHT22;38101;53.126;6.878;2022-11-15T14:48:56;12.50;99.90
52103;DHT22;38101;53.126;6.878;2022-11-15T14:51:22;12.50;99.90
52103;DHT22;38101;53.126;6.878;2022-11-15T14:53:48;12.40;99.90
52103;DHT22;38101;53.126;6.878;2022-11-15T14:56:14;12.40;99.90
52103;DHT22;38101;53.126;6.878;2022-11-15T14:58:40;12.40;99.90
52103;DHT22;38101;53.126;6.878;2022-11-15T15:01:13;12.30;99.90
52103;DHT22;38101;53.126;6.878;2022-11-15T15:03:39;12.30;99.90
52103;DHT22;38101;53.126;6.878;2022-11-15T15:06:08;12.20;99.90
52103;DHT22;38101;53.126;6.878;2022-11-15T15:08:34;12.20;99.90
52103;DHT22;38101;53.126;6.878;2022-11-15T15:11:00;12.10;99.90
52103;DHT22;38101;53.126;6.878;2022-11-15T15:13:25;12.10;99.90
52103;DHT22;38101;53.126;6.878;2022-11-15T15:15:52;12.10;99.90
52103;DHT22;38101;53.126;6.878;2022-11-15T15:18:18;12.00;99.90
52103;DHT22;38101;53.126;6.878;2022-11-15T15:20:53;12.00;99.90
52103;DHT22;38101;53.126;6.878;2022-11-15T15:23:20;11.90;99.90
52103;DHT22;38101;53.126;6.878;2022-11-15T15:25:47;11.90;99.90
52103;DHT22;38101;53.126;6.878;2022-11-15T15:28:14;11.80;99.90
52103;DHT22;38101;53.126;6.878;2022-11-15T15:30:40;11.80;99.90
52103;DHT22;38101;53.126;6.878;2022-11-15T15:33:06;11.80;99.90
52103;DHT22;38101;53.126;6.878;2022-11-15T15:35:34;11.70;99.90
52103;DHT22;38101;53.126;6.878;2022-11-15T15:38:03;11.70;99.90
52103;DHT22;38101;53.126;6.878;2022-11-15T15:40:31;11.60;99.90
52103;DHT22;38101;53.126;6.878;2022-11-15T15:42:57;11.60;99.90
52103;DHT22;38101;53.126;6.878;2022-11-15T15:45:24;11.60;99.90
52103;DHT22;38101;53.126;6.878;2022-11-15T15:47:50;11.50;99.90
52103;DHT22;38101;53.126;6.878;2022-11-15T15:50:43;11.50;99.90
52103;DHT22;38101;53.126;6.878;2022-11-15T15:53:11;11.40;99.90
52103;DHT22;38101;53.126;6.878;2022-11-15T15:55:37;11.40;99.90
52103;DHT22;38101;53.126;6.878;2022-11-15T15:58:04;11.30;99.90
52103;DHT22;38101;53.126;6.878;2022-11-15T16:00:30;11.40;99.90
52103;DHT22;38101;53.126;6.878;2022-11-15T16:02:58;11.30;99.90
52103;DHT22;38101;53.126;6.878;2022-11-15T16:05:25;11.30;99.90
52103;DHT22;38101;53.126;6.878;2022-11-15T16:07:51;11.30;99.90
52103;DHT22;38101;53.126;6.878;2022-11-15T16:10:31;11.30;99.90
52103;DHT22;38101;53.126;6.878;2022-11-15T16:12:57;11.20;99.90
52103;DHT22;38101;53.126;6.878;2022-11-15T16:15:26;11.20;99.90
52103;DHT22;38101;53.126;6.878;2022-11-15T16:17:57;11.20;99.90
52103;DHT22;38101;53.126;6.878;2022-11-15T16:23:02;11.20;99.90
52103;DHT22;38101;53.126;6.878;2022-11-15T16:25:31;11.20;99.90
52103;DHT22;38101;53.126;6.878;2022-11-15T16:27:58;11.10;99.90
52103;DHT22;38101;53.126;6.878;2022-11-15T16:30:24;11.10;99.90
52103;DHT22;38101;53.126;6.878;2022-11-15T16:32:49;11.10;99.90
52103;DHT22;38101;53.126;6.878;2022-11-15T16:35:16;11.10;99.90
52103;DHT22;38101;53.126;6.878;2022-11-15T16:37:44;11.00;99.90
52103;DHT22;38101;53.126;6.878;2022-11-15T16:40:26;11.00;99.90
52103;DHT22;38101;53.126;6.878;2022-11-15T16:42:52;11.00;99.90
52103;DHT22;38101;53.126;6.878;2022-11-15T16:45:18;11.00;99.90
52103;DHT22;38101;53.126;6.878;2022-11-15T16:47:45;11.00;99.90
52103;DHT22;38101;53.126;6.878;2022-11-15T16:50:25;10.90;99.90
52103;DHT22;38101;53.126;6.878;2022-11-15T16:52:52;10.90;99.90
52103;DHT22;38101;53.126;6.878;2022-11-15T16:55:20;10.90;99.90
52103;DHT22;38101;53.126;6.878;2022-11-15T16:57:46;10.90;99.90
52103;DHT22;38101;53.126;6.878;2022-11-15T17:00:12;10.90;99.90
52103;DHT22;38101;53.126;6.878;2022-11-15T17:02:42;10.90;99.90
52103;DHT22;38101;53.126;6.878;2022-11-15T17:05:09;10.90;99.90
52103;DHT22;38101;53.126;6.878;2022-11-15T17:07:34;10.90;99.90
52103;DHT22;38101;53.126;6.878;2022-11-15T17:10:00;10.80;99.90
52103;DHT22;38101;53.126;6.878;2022-11-15T17:12:26;10.80;99.90
52103;DHT22;38101;53.126;6.878;2022-11-15T17:14:51;10.80;99.90
52103;DHT22;38101;53.126;6.878;2022-11-15T17:17:17;10.90;99.90
52103;DHT22;38101;53.126;6.878;2022-11-15T17:19:43;10.80;99.90
52103;DHT22;38101;53.126;6.878;2022-11-15T17:22:08;10.80;99.90
52103;DHT22;38101;53.126;6.878;2022-11-15T17:24:34;10.80;99.90
52103;DHT22;38101;53.126;6.878;2022-11-15T17:27:00;10.80;99.90
52103;DHT22;38101;53.126;6.878;2022-11-15T17:29:25;10.70;99.90
52103;DHT22;38101;53.126;6.878;2022-11-15T17:31:51;10.70;99.90
52103;DHT22;38101;53.126;6.878;2022-11-15T17:34:17;10.70;99.90
52103;DHT22;38101;53.126;6.878;2022-11-15T17:36:42;10.70;99.90
52103;DHT22;38101;53.126;6.878;2022-11-15T17:39:08;10.70;99.90